Terminal Aerodrome Forecast
Issued by NWS Jacksonville, FL

Home | Current Version | Previous Version | Text Only | Print | Product List | Glossary On
Versions: 1 2 3 4 5 6 7 8 9 10 11 12 13 14 15 16 17 18 19
000
FTUS42 KJAX 211500 AAB
TAFJAX
TAF AMD
KJAX 211516Z 2115/2212 04010KT 6SM -RA BR OVC006
      TEMPO 2115/2117 3SM RA BR
     FM211700 06005KT P6SM VCSH SCT005 OVC009
     FM220000 07003KT 5SM -RA BR BKN005=

USA.gov is the U.S. government's official web portal to all federal, state and local government web resources and services.